createdAt,value
2022-09-16T00:00:10.597Z,98.99
2022-09-16T00:01:10.700Z,99.09
2022-09-16T00:02:10.678Z,98.89
2022-09-16T00:03:10.583Z,99.50
2022-09-16T00:04:10.586Z,99.19
2022-09-16T00:05:10.561Z,98.79
2022-09-16T00:06:10.535Z,98.79
2022-09-16T00:07:10.569Z,99.40
2022-09-16T00:08:10.513Z,98.99
2022-09-16T00:09:10.504Z,98.38
2022-09-16T00:10:10.537Z,97.21
2022-09-16T00:11:10.536Z,98.23
2022-09-16T00:12:10.529Z,97.92
2022-09-16T00:13:10.483Z,98.02
2022-09-16T00:14:10.460Z,97.11
2022-09-16T00:15:10.440Z,97.41
2022-09-16T00:16:10.525Z,97.52
2022-09-16T00:17:10.472Z,97.62
2022-09-16T00:18:10.425Z,97.92
2022-09-16T00:19:10.410Z,97.36
2022-09-16T00:20:10.370Z,97.87
2022-09-16T00:21:10.370Z,97.97
2022-09-16T00:22:10.384Z,97.46
2022-09-16T00:23:10.349Z,97.87
2022-09-16T00:24:10.336Z,97.66
2022-09-16T00:25:10.339Z,97.16
2022-09-16T00:26:10.318Z,97.25
2022-09-16T00:27:10.351Z,96.95
2022-09-16T00:28:10.307Z,96.23
2022-09-16T00:29:10.288Z,96.14
2022-09-16T00:30:10.263Z,96.03
2022-09-16T00:31:10.331Z,96.84
2022-09-16T00:32:10.291Z,97.46
2022-09-16T00:33:10.249Z,97.16
2022-09-16T00:34:10.248Z,97.16
2022-09-16T00:35:10.228Z,97.05
2022-09-16T00:36:10.195Z,97.50
2022-09-16T00:37:10.226Z,97.61
2022-09-16T00:38:10.186Z,97.09
2022-09-16T00:39:10.183Z,97.20
2022-09-16T00:40:10.211Z,97.91
2022-09-16T00:41:10.170Z,97.40
2022-09-16T00:42:10.188Z,97.50
2022-09-16T00:43:10.126Z,97.20
2022-09-16T00:44:10.124Z,97.81
2022-09-16T00:45:10.099Z,98.73
2022-09-16T00:46:10.101Z,97.91
2022-09-16T00:47:10.202Z,97.61
2022-09-16T00:48:10.083Z,97.91
2022-09-16T00:49:10.074Z,98.43
2022-09-16T00:50:10.040Z,98.73
2022-09-16T00:51:10.048Z,99.04
2022-09-16T00:52:10.049Z,99.54
2022-09-16T00:53:10.006Z,99.99
2022-09-16T00:54:09.996Z,99.49
2022-09-16T00:55:10.001Z,98.77
2022-09-16T00:56:09.986Z,99.08
2022-09-16T00:57:10.040Z,98.77
2022-09-16T00:58:09.960Z,98.88
2022-09-16T00:59:09.945Z,98.88
2022-09-16T01:00:09.925Z,99.08
2022-09-16T01:01:09.985Z,99.69
2022-09-16T01:02:10.011Z,99.99
2022-09-16T01:03:09.912Z,99.99
2022-09-16T01:04:09.884Z,99.99
2022-09-16T01:05:09.885Z,99.99
2022-09-16T01:06:09.869Z,99.99
2022-09-16T01:07:09.889Z,99.99
2022-09-16T01:08:09.849Z,99.99
2022-09-16T01:09:09.857Z,99.99
2022-09-16T01:10:09.822Z,99.99
2022-09-16T01:11:09.824Z,99.99
2022-09-16T01:12:09.820Z,99.99
2022-09-16T01:13:09.787Z,99.99
2022-09-16T01:14:09.802Z,99.75
2022-09-16T01:15:09.764Z,99.95
2022-09-16T01:16:09.791Z,99.54
2022-09-16T01:17:09.787Z,99.95
2022-09-16T01:18:09.739Z,98.93
2022-09-16T01:19:09.733Z,98.32
2022-09-16T01:20:09.707Z,97.87
2022-09-16T01:21:09.710Z,96.64
2022-09-16T01:22:09.727Z,97.36
2022-09-16T01:23:09.685Z,96.84
2022-09-16T01:24:09.650Z,96.75
2022-09-16T01:25:09.646Z,96.54
2022-09-16T01:26:09.629Z,96.54
2022-09-16T01:27:09.670Z,96.64
2022-09-16T01:28:09.611Z,98.07
2022-09-16T01:29:09.612Z,97.46
2022-09-16T01:30:09.599Z,98.02
2022-09-16T01:31:09.615Z,97.71
2022-09-16T01:32:09.604Z,97.20
2022-09-16T01:33:09.582Z,98.32
2022-09-16T01:34:09.537Z,97.81
2022-09-16T01:35:09.540Z,97.71
2022-09-16T01:36:09.527Z,97.16
2022-09-16T01:37:09.541Z,97.36
2022-09-16T01:38:09.500Z,97.05
2022-09-16T01:39:09.483Z,96.54
2022-09-16T01:40:09.517Z,97.36
2022-09-16T01:41:09.474Z,97.16
2022-09-16T01:42:09.501Z,96.54
2022-09-16T01:43:09.482Z,96.60
2022-09-16T01:44:09.433Z,95.98
2022-09-16T01:45:09.423Z,96.19
2022-09-16T01:46:09.425Z,95.89
2022-09-16T01:47:09.434Z,95.89
2022-09-16T01:48:09.386Z,96.50
2022-09-16T01:49:09.373Z,96.80
2022-09-16T01:50:09.354Z,96.23
2022-09-16T01:51:09.354Z,96.44
2022-09-16T01:52:09.373Z,96.50
2022-09-16T01:53:09.323Z,96.60
2022-09-16T01:54:09.321Z,96.60
2022-09-16T01:55:09.302Z,96.19
2022-09-16T01:56:09.294Z,96.70
2022-09-16T01:57:09.314Z,97.11
2022-09-16T01:58:09.266Z,96.23
2022-09-16T01:59:09.257Z,96.64
2022-09-16T02:00:09.252Z,96.54
2022-09-16T02:01:09.233Z,97.25
2022-09-16T02:02:09.383Z,96.44
2022-09-16T02:03:09.224Z,96.95
2022-09-16T02:04:09.207Z,96.23
2022-09-16T02:05:09.196Z,96.14
2022-09-16T02:06:09.172Z,96.75
2022-09-16T02:07:09.208Z,96.75
2022-09-16T02:08:09.158Z,97.77
2022-09-16T02:09:09.148Z,96.75
2022-09-16T02:10:09.126Z,97.56
2022-09-16T02:11:09.118Z,97.36
2022-09-16T02:12:09.148Z,98.18
2022-09-16T02:13:09.107Z,98.32
2022-09-16T02:14:09.087Z,98.73
2022-09-16T02:15:09.083Z,98.43
2022-09-16T02:16:09.096Z,98.63
2022-09-16T02:17:09.090Z,98.43
2022-09-16T02:18:09.050Z,98.68
2022-09-16T02:19:09.038Z,98.88
2022-09-16T02:20:09.012Z,99.18
2022-09-16T02:21:09.008Z,99.59
2022-09-16T02:22:09.023Z,99.74
2022-09-16T02:23:08.986Z,99.99
2022-09-16T02:24:08.973Z,99.99
2022-09-16T02:25:08.966Z,99.99
2022-09-16T02:26:08.954Z,99.99
2022-09-16T02:27:08.981Z,99.99
2022-09-16T02:28:08.955Z,99.99
2022-09-16T02:29:08.924Z,99.99
2022-09-16T02:30:08.907Z,99.99
2022-09-16T02:31:08.902Z,99.99
2022-09-16T02:32:08.928Z,99.99
2022-09-16T02:33:08.861Z,99.99
2022-09-16T02:34:08.866Z,99.99
2022-09-16T02:35:08.845Z,99.99
2022-09-16T02:36:08.841Z,99.99
2022-09-16T02:37:08.875Z,99.99
2022-09-16T02:38:08.823Z,99.99
2022-09-16T02:39:08.810Z,99.99
2022-09-16T02:40:08.853Z,99.99
2022-09-16T02:41:08.785Z,99.99
2022-09-16T02:42:08.818Z,99.99
2022-09-16T02:43:08.771Z,99.99
2022-09-16T02:44:08.748Z,99.99
2022-09-16T02:45:08.746Z,99.99
2022-09-16T02:46:08.787Z,99.99
2022-09-16T02:47:08.759Z,99.99
2022-09-16T02:48:08.703Z,99.99
2022-09-16T02:49:08.689Z,99.99
2022-09-16T02:50:08.683Z,99.99
2022-09-16T02:51:08.679Z,99.99
2022-09-16T02:52:08.703Z,99.99
2022-09-16T02:53:08.663Z,99.99
2022-09-16T02:54:08.648Z,99.99
2022-09-16T02:55:08.624Z,99.99
2022-09-16T02:56:08.607Z,99.99
2022-09-16T02:57:08.651Z,99.99
2022-09-16T02:58:08.595Z,99.99
2022-09-16T02:59:08.589Z,99.99
2022-09-16T03:00:08.587Z,99.99
2022-09-16T03:01:08.573Z,99.99
2022-09-16T03:02:08.687Z,99.99
2022-09-16T03:03:08.650Z,99.99
2022-09-16T03:04:08.518Z,99.99
2022-09-16T03:05:08.513Z,99.99
2022-09-16T03:06:08.508Z,99.99
2022-09-16T03:07:08.528Z,99.99
2022-09-16T03:08:08.487Z,99.99
2022-09-16T03:09:08.465Z,99.99
2022-09-16T03:10:08.458Z,99.99
2022-09-16T03:11:08.449Z,99.99
2022-09-16T03:12:08.478Z,99.99
2022-09-16T03:13:08.416Z,99.99
2022-09-16T03:14:08.442Z,99.99
2022-09-16T03:15:08.411Z,99.99
2022-09-16T03:16:08.446Z,99.99
2022-09-16T03:17:08.406Z,99.99
2022-09-16T03:18:08.364Z,99.99
2022-09-16T03:19:08.365Z,99.99
2022-09-16T03:20:08.354Z,99.99
2022-09-16T03:21:08.327Z,99.99
2022-09-16T03:22:08.363Z,99.99
2022-09-16T03:23:08.305Z,99.99
2022-09-16T03:24:08.303Z,99.99
2022-09-16T03:25:08.283Z,99.99
2022-09-16T03:26:08.278Z,99.99
2022-09-16T03:27:08.310Z,99.99
2022-09-16T03:28:08.254Z,99.99
2022-09-16T03:29:08.251Z,99.99
2022-09-16T03:30:08.233Z,99.99
2022-09-16T03:31:08.281Z,99.99
2022-09-16T03:32:08.253Z,99.99
2022-09-16T03:33:08.191Z,99.99
2022-09-16T03:34:08.190Z,99.99
2022-09-16T03:35:08.178Z,99.99
2022-09-16T03:36:08.172Z,99.99
2022-09-16T03:37:08.221Z,99.99
2022-09-16T03:38:08.138Z,99.99
2022-09-16T03:39:08.123Z,99.99
2022-09-16T03:40:08.135Z,99.99
2022-09-16T03:41:08.111Z,99.99
2022-09-16T03:42:08.136Z,99.99
2022-09-16T03:43:08.080Z,99.99
2022-09-16T03:44:08.073Z,99.99
2022-09-16T03:45:08.065Z,99.99
2022-09-16T03:46:08.081Z,99.99
2022-09-16T03:47:08.066Z,99.99
2022-09-16T03:48:08.031Z,99.99
2022-09-16T03:49:08.014Z,99.99
2022-09-16T03:50:08.001Z,99.99
2022-09-16T03:51:07.988Z,99.99
2022-09-16T03:52:08.029Z,99.99
2022-09-16T03:53:07.994Z,99.99
2022-09-16T03:54:07.963Z,99.99
2022-09-16T03:55:07.948Z,99.99
2022-09-16T03:56:07.935Z,99.99
2022-09-16T03:57:07.957Z,99.99
2022-09-16T03:58:07.920Z,99.99
2022-09-16T03:59:07.899Z,99.99
2022-09-16T04:00:07.898Z,99.99
2022-09-16T04:01:07.942Z,99.99
2022-09-16T04:02:07.901Z,99.99
2022-09-16T04:03:07.893Z,99.99
2022-09-16T04:04:07.852Z,99.99
2022-09-16T04:05:07.833Z,99.99
2022-09-16T04:06:07.828Z,99.99
2022-09-16T04:07:07.845Z,99.99
2022-09-16T04:08:07.805Z,99.99
2022-09-16T04:09:07.797Z,99.99
2022-09-16T04:10:07.783Z,99.99
2022-09-16T04:11:07.758Z,99.99
2022-09-16T04:12:07.801Z,99.99
2022-09-16T04:13:07.738Z,99.99
2022-09-16T04:14:07.738Z,99.99
2022-09-16T04:15:07.723Z,99.99
2022-09-16T04:16:07.779Z,99.99
2022-09-16T04:17:07.702Z,99.99
2022-09-16T04:18:07.727Z,99.99
2022-09-16T04:19:07.676Z,99.99
2022-09-16T04:20:07.666Z,99.99
2022-09-16T04:21:07.655Z,99.99
2022-09-16T04:22:07.649Z,99.99
2022-09-16T04:23:07.669Z,99.99
2022-09-16T04:24:12.689Z,99.99
2022-09-16T04:25:08.608Z,99.99
2022-09-16T04:26:07.607Z,99.99
2022-09-16T04:27:07.582Z,99.99
2022-09-16T04:28:07.616Z,99.99
2022-09-16T04:29:07.557Z,99.99
2022-09-16T04:30:07.581Z,99.99
2022-09-16T04:31:07.606Z,99.99
2022-09-16T04:32:07.568Z,99.99
2022-09-16T04:33:07.519Z,99.99
2022-09-16T04:34:07.516Z,99.99
2022-09-16T04:35:07.488Z,99.99
2022-09-16T04:36:07.488Z,99.99
2022-09-16T04:37:07.509Z,99.99
2022-09-16T04:38:07.460Z,99.99
2022-09-16T04:39:07.478Z,99.99
2022-09-16T04:40:07.502Z,99.99
2022-09-16T04:41:07.418Z,99.99
2022-09-16T04:42:07.419Z,99.99
2022-09-16T04:43:07.429Z,99.99
2022-09-16T04:44:07.393Z,99.99
2022-09-16T04:45:07.374Z,99.99
2022-09-16T04:46:07.412Z,99.99
2022-09-16T04:47:07.348Z,99.99
2022-09-16T04:48:07.389Z,99.99
2022-09-16T04:49:07.338Z,99.99
2022-09-16T04:50:07.319Z,99.99
2022-09-16T04:51:07.306Z,99.99
2022-09-16T04:52:07.305Z,99.99
2022-09-16T04:53:07.339Z,99.99
2022-09-16T04:54:07.284Z,99.99
2022-09-16T04:55:07.264Z,99.99
2022-09-16T04:56:07.288Z,99.99
2022-09-16T04:57:07.256Z,99.99
2022-09-16T04:58:07.263Z,99.99
2022-09-16T04:59:07.225Z,99.99
2022-09-16T05:00:07.218Z,99.99
2022-09-16T05:01:07.276Z,99.99
2022-09-16T05:02:07.203Z,99.99
2022-09-16T05:03:07.231Z,99.99
2022-09-16T05:04:07.173Z,99.99
2022-09-16T05:05:07.158Z,99.99
2022-09-16T05:06:07.155Z,99.99
2022-09-16T05:07:07.132Z,99.99
2022-09-16T05:08:07.180Z,99.99
2022-09-16T05:09:07.114Z,99.99
2022-09-16T05:10:07.101Z,99.99
2022-09-16T05:11:07.073Z,99.99
2022-09-16T05:12:07.083Z,99.99
2022-09-16T05:13:07.071Z,99.99
2022-09-16T05:14:07.091Z,99.99
2022-09-16T05:15:07.051Z,99.99
2022-09-16T05:16:07.072Z,99.99
2022-09-16T05:17:07.100Z,99.99
2022-09-16T05:18:07.022Z,99.99
2022-09-16T05:19:07.029Z,99.99
2022-09-16T05:20:06.993Z,99.99
2022-09-16T05:21:06.976Z,99.99
2022-09-16T05:22:06.986Z,99.99
2022-09-16T05:23:06.954Z,99.99
2022-09-16T05:24:06.993Z,99.99
2022-09-16T05:25:06.966Z,99.99
2022-09-16T05:26:06.933Z,99.99
2022-09-16T05:27:06.923Z,99.99
2022-09-16T05:28:06.917Z,99.99
2022-09-16T05:29:06.916Z,99.99
2022-09-16T05:30:06.883Z,99.99
2022-09-16T05:31:06.902Z,99.99
2022-09-16T05:32:06.859Z,99.99
2022-09-16T05:33:06.846Z,99.99
2022-09-16T05:34:06.877Z,99.99
2022-09-16T05:35:06.822Z,99.99
2022-09-16T05:36:06.818Z,99.99
2022-09-16T05:37:06.793Z,99.99
2022-09-16T05:38:06.784Z,99.99
2022-09-16T05:39:24.151Z,99.85
2022-09-16T05:40:07.821Z,99.75
2022-09-16T05:41:06.748Z,99.65
2022-09-16T05:42:06.746Z,99.65
2022-09-16T05:43:06.726Z,99.34
2022-09-16T05:44:06.760Z,99.34
2022-09-16T05:45:06.703Z,99.95
2022-09-16T05:46:06.727Z,99.65
2022-09-16T05:47:06.690Z,99.24
2022-09-16T05:48:06.701Z,99.54
2022-09-16T05:49:06.703Z,99.54
2022-09-16T05:50:06.648Z,99.34
2022-09-16T05:51:06.636Z,99.65
2022-09-16T05:52:06.617Z,99.60
2022-09-16T05:53:06.623Z,99.19
2022-09-16T05:54:06.608Z,99.19
2022-09-16T05:55:06.630Z,98.89
2022-09-16T05:56:06.587Z,99.19
2022-09-16T05:57:07.343Z,98.18
2022-09-16T05:58:06.568Z,98.43
2022-09-16T05:59:06.536Z,98.54
2022-09-16T06:00:06.583Z,98.43
2022-09-16T06:01:06.584Z,98.02
2022-09-16T06:02:06.616Z,99.99
2022-09-16T06:03:06.496Z,97.92
2022-09-16T06:04:06.498Z,98.23
2022-09-16T06:05:06.510Z,97.98
2022-09-16T06:06:06.478Z,98.69
2022-09-16T06:07:06.466Z,97.78
2022-09-16T06:08:06.461Z,97.37
2022-09-16T06:09:06.436Z,97.67
2022-09-16T06:10:06.462Z,97.27
2022-09-16T06:11:06.412Z,97.57
2022-09-16T06:12:06.403Z,97.57
2022-09-16T06:13:06.383Z,97.57
2022-09-16T06:14:06.378Z,97.06
2022-09-16T06:15:06.398Z,97.67
2022-09-16T06:16:06.388Z,96.96
2022-09-16T06:17:06.348Z,96.41
2022-09-16T06:18:06.705Z,96.20
2022-09-16T06:19:06.315Z,95.85
2022-09-16T06:20:06.346Z,95.70
2022-09-16T06:21:06.320Z,94.28
2022-09-16T06:22:06.278Z,93.43
2022-09-16T06:23:06.263Z,93.89
2022-09-16T06:24:06.249Z,92.36
2022-09-16T06:25:06.282Z,91.82
2022-09-16T06:26:06.245Z,92.87
2022-09-16T06:27:06.226Z,92.57
2022-09-16T06:28:06.220Z,92.22
2022-09-16T06:29:06.202Z,91.87
2022-09-16T06:30:06.230Z,90.86
2022-09-16T06:31:06.415Z,89.23
2022-09-16T06:32:06.172Z,89.39
2022-09-16T06:33:06.173Z,88.75
2022-09-16T06:34:06.154Z,87.59
2022-09-16T06:35:06.170Z,85.56
2022-09-16T06:36:06.128Z,86.73
2022-09-16T06:37:06.102Z,86.49
2022-09-16T06:38:06.105Z,85.84
2022-09-16T06:39:06.088Z,82.90
2022-09-16T06:40:06.176Z,86.49
2022-09-16T06:41:06.065Z,86.19
2022-09-16T06:42:06.063Z,85.93
2022-09-16T06:43:06.043Z,86.53
2022-09-16T06:44:06.030Z,85.76
2022-09-16T06:45:06.068Z,86.02
2022-09-16T06:46:06.048Z,86.27
2022-09-16T06:47:06.021Z,87.28
2022-09-16T06:48:06.010Z,86.51
2022-09-16T06:49:06.737Z,86.35
2022-09-16T06:50:05.995Z,87.16
2022-09-16T06:51:05.961Z,87.57
2022-09-16T06:52:05.953Z,87.22
2022-09-16T06:53:05.934Z,86.77
2022-09-16T06:54:05.911Z,86.68
2022-09-16T06:55:05.958Z,86.77
2022-09-16T06:56:05.890Z,86.68
2022-09-16T06:57:11.390Z,86.98
2022-09-16T06:58:06.887Z,85.46
2022-09-16T06:59:05.865Z,85.66
2022-09-16T07:00:05.899Z,86.27
2022-09-16T07:01:05.893Z,86.10
2022-09-16T07:02:05.873Z,86.82
2022-09-16T07:03:05.823Z,86.41
2022-09-16T07:04:05.809Z,86.45
2022-09-16T07:05:05.846Z,87.30
2022-09-16T07:06:05.784Z,88.82
2022-09-16T07:07:09.783Z,87.71
2022-09-16T07:08:05.774Z,88.44
2022-09-16T07:09:05.767Z,85.93
2022-09-16T07:10:05.728Z,86.10
2022-09-16T07:11:05.774Z,86.31
2022-09-16T07:12:05.721Z,86.15
2022-09-16T07:13:05.701Z,86.82
2022-09-16T07:14:05.699Z,86.10
2022-09-16T07:15:05.726Z,85.90
2022-09-16T07:16:14.131Z,85.84
2022-09-16T07:17:06.689Z,87.22
2022-09-16T07:18:05.639Z,85.27
2022-09-16T07:19:05.654Z,81.51
2022-09-16T07:20:05.662Z,80.99
2022-09-16T07:21:05.631Z,79.52
2022-09-16T07:22:05.596Z,80.29
2022-09-16T07:23:05.602Z,79.72
2022-09-16T07:24:05.577Z,78.68
2022-09-16T07:25:05.611Z,81.59
2022-09-16T07:26:05.574Z,81.93
2022-09-16T07:27:05.547Z,81.76
2022-09-16T07:28:05.548Z,81.62
2022-09-16T07:29:05.523Z,81.62
2022-09-16T07:30:08.934Z,81.31
2022-09-16T07:31:05.622Z,81.92
2022-09-16T07:32:05.484Z,80.10
2022-09-16T07:33:05.512Z,83.66
2022-09-16T07:34:05.488Z,79.17
2022-09-16T07:35:05.459Z,78.30
2022-09-16T07:36:05.465Z,78.95
2022-09-16T07:37:05.452Z,80.38
2022-09-16T07:38:05.416Z,80.47
2022-09-16T07:39:05.412Z,80.66
2022-09-16T07:40:05.457Z,78.03
2022-09-16T07:41:05.423Z,74.63
2022-09-16T07:42:06.353Z,74.46
2022-09-16T07:43:05.370Z,76.71
2022-09-16T07:44:05.344Z,73.21
2022-09-16T07:45:05.383Z,71.94
2022-09-16T07:46:05.400Z,70.96
2022-09-16T07:47:05.326Z,72.00
2022-09-16T07:48:05.298Z,70.50
2022-09-16T07:49:05.303Z,70.93
2022-09-16T07:50:05.323Z,68.95
2022-09-16T07:51:05.280Z,68.98
2022-09-16T07:52:05.263Z,70.26
2022-09-16T07:53:05.248Z,68.92
2022-09-16T07:54:05.242Z,70.79
2022-09-16T07:55:05.276Z,67.88
2022-09-16T07:56:05.233Z,69.35
2022-09-16T07:57:05.208Z,71.06
2022-09-16T07:58:05.188Z,71.00
2022-09-16T07:59:05.186Z,69.12
2022-09-16T08:00:05.164Z,69.99
2022-09-16T08:01:05.293Z,70.36
2022-09-16T08:02:05.328Z,72.03
2022-09-16T08:03:05.228Z,68.92
2022-09-16T08:04:05.118Z,70.26
2022-09-16T08:05:05.108Z,69.69
2022-09-16T08:06:05.138Z,73.91
2022-09-16T08:07:05.102Z,69.56
2022-09-16T08:08:05.095Z,71.94
2022-09-16T08:09:15.621Z,72.88
2022-09-16T08:10:06.171Z,75.50
2022-09-16T08:11:05.058Z,72.98
2022-09-16T08:12:05.034Z,71.56
2022-09-16T08:13:05.030Z,72.31
2022-09-16T08:14:05.018Z,73.65
2022-09-16T08:15:05.038Z,74.35
2022-09-16T08:16:04.996Z,73.65
2022-09-16T08:17:04.992Z,73.85
2022-09-16T08:18:04.969Z,74.26
2022-09-16T08:19:04.964Z,70.50
2022-09-16T08:20:05.007Z,70.93
2022-09-16T08:21:04.924Z,73.99
2022-09-16T08:22:04.949Z,74.32
2022-09-16T08:23:04.914Z,75.27
2022-09-16T08:24:04.918Z,74.73
2022-09-16T08:25:04.940Z,75.07
2022-09-16T08:26:04.881Z,76.01
2022-09-16T08:27:04.896Z,76.65
2022-09-16T08:28:04.856Z,77.60
2022-09-16T08:29:08.965Z,77.90
2022-09-16T08:30:05.893Z,76.75
2022-09-16T08:31:04.834Z,76.35
2022-09-16T08:32:04.873Z,77.83
2022-09-16T08:33:04.818Z,74.13
2022-09-16T08:34:04.808Z,74.97
2022-09-16T08:35:04.777Z,76.99
2022-09-16T08:36:04.797Z,75.68
2022-09-16T08:37:04.758Z,75.27
2022-09-16T08:38:04.743Z,75.48
2022-09-16T08:39:04.748Z,77.19
2022-09-16T08:40:04.827Z,76.25
2022-09-16T08:41:04.763Z,75.91
2022-09-16T08:42:04.696Z,75.20
2022-09-16T08:43:04.693Z,74.69
2022-09-16T08:44:04.695Z,74.80
2022-09-16T08:45:04.671Z,74.87
2022-09-16T08:46:04.747Z,71.20
2022-09-16T08:47:04.653Z,71.13
2022-09-16T08:48:04.622Z,71.73
2022-09-16T08:49:04.679Z,69.85
2022-09-16T08:50:04.608Z,72.07
2022-09-16T08:51:04.644Z,71.57
2022-09-16T08:52:04.588Z,70.76
2022-09-16T08:53:04.594Z,71.87
2022-09-16T08:54:04.563Z,71.94
2022-09-16T08:55:04.558Z,70.70
2022-09-16T08:56:04.579Z,71.40
2022-09-16T08:57:04.552Z,70.29
2022-09-16T08:58:04.523Z,71.16
2022-09-16T08:59:04.513Z,69.45
2022-09-16T09:00:04.494Z,68.41
2022-09-16T09:01:04.617Z,69.89
2022-09-16T09:02:09.064Z,68.45
2022-09-16T09:03:05.482Z,68.35
2022-09-16T09:04:04.458Z,68.38
2022-09-16T09:05:04.483Z,67.84
2022-09-16T09:06:04.467Z,68.82
2022-09-16T09:07:04.434Z,68.52
2022-09-16T09:08:04.422Z,68.35
2022-09-16T09:09:04.394Z,66.20
2022-09-16T09:10:07.148Z,66.67
2022-09-16T09:11:05.424Z,66.82
2022-09-16T09:12:04.364Z,63.84
2022-09-16T09:13:04.484Z,65.10
2022-09-16T09:14:04.344Z,66.41
2022-09-16T09:15:04.353Z,64.78
2022-09-16T09:16:04.422Z,63.24
2022-09-16T09:17:04.316Z,63.43
2022-09-16T09:18:04.298Z,64.30
2022-09-16T09:19:04.291Z,64.77
2022-09-16T09:20:04.269Z,66.20
2022-09-16T09:21:04.315Z,66.08
2022-09-16T09:22:04.259Z,62.17
2022-09-16T09:23:04.245Z,63.40
2022-09-16T09:24:04.233Z,66.35
2022-09-16T09:25:04.215Z,68.35
2022-09-16T09:26:04.242Z,66.75
2022-09-16T09:27:04.200Z,64.88
2022-09-16T09:28:04.189Z,64.90
2022-09-16T09:29:04.182Z,66.10
2022-09-16T09:30:04.175Z,67.24
2022-09-16T09:31:08.659Z,68.51
2022-09-16T09:32:05.219Z,69.15
2022-09-16T09:33:04.161Z,70.29
2022-09-16T09:34:04.146Z,69.79
2022-09-16T09:35:04.112Z,68.61
2022-09-16T09:36:04.137Z,72.54
2022-09-16T09:37:04.090Z,69.95
2022-09-16T09:38:04.073Z,73.69
2022-09-16T09:39:04.078Z,71.87
2022-09-16T09:40:04.083Z,74.40
2022-09-16T09:41:04.084Z,72.88
2022-09-16T09:42:04.030Z,74.53
2022-09-16T09:43:04.013Z,73.93
2022-09-16T09:44:04.005Z,75.13
2022-09-16T09:45:04.086Z,74.63
2022-09-16T09:46:04.123Z,74.53
2022-09-16T09:47:03.992Z,72.71
2022-09-16T09:48:03.965Z,74.22
2022-09-16T09:49:03.993Z,74.53
2022-09-16T09:50:03.946Z,73.72
2022-09-16T09:51:03.959Z,75.81
2022-09-16T09:52:03.915Z,71.87
2022-09-16T09:53:03.925Z,73.89
2022-09-16T09:54:03.895Z,74.16
2022-09-16T09:55:03.882Z,77.15
2022-09-16T09:56:03.907Z,75.78
2022-09-16T09:57:03.870Z,76.28
2022-09-16T09:58:03.850Z,75.31
2022-09-16T09:59:03.848Z,75.45
2022-09-16T10:00:03.832Z,75.75
2022-09-16T10:01:03.917Z,76.42
2022-09-16T10:02:03.893Z,75.61
2022-09-16T10:03:03.800Z,76.69
2022-09-16T10:04:03.784Z,74.87
2022-09-16T10:05:03.772Z,74.57
2022-09-16T10:06:03.799Z,75.44
2022-09-16T10:08:03.743Z,76.42
2022-09-16T10:09:03.727Z,71.67
2022-09-16T10:10:03.711Z,71.97
2022-09-16T10:11:03.749Z,73.18
2022-09-16T10:12:03.691Z,72.44
2022-09-16T10:13:03.682Z,70.22
2022-09-16T10:14:03.679Z,72.61
2022-09-16T10:15:03.669Z,72.44
2022-09-16T10:16:03.716Z,67.97
2022-09-16T10:17:03.642Z,71.23
2022-09-16T10:18:03.614Z,67.47
2022-09-16T10:19:03.609Z,67.85
2022-09-16T10:20:03.592Z,68.75
2022-09-16T10:21:03.635Z,65.23
2022-09-16T10:22:03.586Z,66.84
2022-09-16T10:23:03.581Z,67.04
2022-09-16T10:24:03.552Z,66.51
2022-09-16T10:25:03.552Z,66.64
2022-09-16T10:26:03.570Z,63.84
2022-09-16T10:27:03.520Z,64.67
2022-09-16T10:28:03.508Z,65.17
2022-09-16T10:29:03.503Z,64.17
2022-09-16T10:30:03.486Z,65.91
2022-09-16T10:31:03.560Z,65.53
2022-09-16T10:32:03.581Z,66.67
2022-09-16T10:33:03.465Z,67.91
2022-09-16T10:34:03.434Z,67.81
2022-09-16T10:35:03.461Z,68.62
2022-09-16T10:36:03.457Z,66.43
2022-09-16T10:37:03.410Z,68.24
2022-09-16T10:38:03.404Z,68.58
2022-09-16T10:39:04.764Z,70.29
2022-09-16T10:40:03.464Z,67.71
2022-09-16T10:41:03.408Z,68.04
2022-09-16T10:42:03.359Z,69.18
2022-09-16T10:43:03.358Z,70.22
2022-09-16T10:44:03.339Z,70.36
2022-09-16T10:45:03.320Z,71.80
2022-09-16T10:46:03.385Z,73.96
2022-09-16T10:47:03.318Z,74.50
2022-09-16T10:48:06.453Z,73.69
2022-09-16T10:49:03.281Z,76.32
2022-09-16T10:50:03.250Z,75.10
2022-09-16T10:51:03.279Z,74.40
2022-09-16T10:52:03.227Z,76.48
2022-09-16T10:53:03.222Z,74.57
2022-09-16T10:54:03.219Z,73.32
2022-09-16T10:55:03.218Z,74.09
2022-09-16T10:56:03.235Z,74.22
2022-09-16T10:57:03.190Z,71.57
2022-09-16T10:58:03.182Z,73.82
2022-09-16T10:59:03.175Z,69.45
2022-09-16T11:00:03.144Z,70.76
2022-09-16T11:01:03.261Z,69.96
2022-09-16T11:02:03.400Z,69.52
2022-09-16T11:03:03.119Z,68.11
2022-09-16T11:04:04.415Z,70.23
2022-09-16T11:05:03.077Z,68.88
2022-09-16T11:06:03.130Z,67.58
2022-09-16T11:07:03.075Z,69.09
2022-09-16T11:08:03.075Z,71.09
2022-09-16T11:09:03.046Z,68.88
2022-09-16T11:10:03.093Z,67.05
2022-09-16T11:11:03.061Z,66.31
2022-09-16T11:12:04.504Z,65.88
2022-09-16T11:13:02.999Z,66.34
2022-09-16T11:14:03.002Z,67.35
2022-09-16T11:15:02.976Z,67.55
2022-09-16T11:16:03.060Z,66.17
2022-09-16T11:17:02.951Z,65.97
2022-09-16T11:18:02.959Z,67.61
2022-09-16T11:19:02.928Z,67.71
2022-09-16T11:20:02.936Z,65.90
2022-09-16T11:21:02.956Z,69.99
2022-09-16T11:22:02.943Z,67.31
2022-09-16T11:23:02.913Z,68.82
2022-09-16T11:24:02.885Z,68.48
2022-09-16T11:25:02.861Z,66.60
2022-09-16T11:26:02.893Z,65.09
2022-09-16T11:27:02.850Z,66.13
2022-09-16T11:28:02.843Z,68.48
2022-09-16T11:29:02.829Z,64.66
2022-09-16T11:30:02.818Z,65.67
2022-09-16T11:31:02.897Z,66.61
2022-09-16T11:32:02.805Z,65.09
2022-09-16T11:33:03.563Z,59.41
2022-09-16T11:34:02.984Z,61.87
2022-09-16T11:35:02.844Z,63.03
2022-09-16T11:36:02.796Z,64.31
2022-09-16T11:37:02.737Z,63.54
2022-09-16T11:38:02.731Z,64.04
2022-09-16T11:39:02.723Z,65.91
2022-09-16T11:40:02.820Z,66.64
2022-09-16T11:41:02.740Z,66.37
2022-09-16T11:42:02.681Z,65.19
2022-09-16T11:43:02.678Z,65.13
2022-09-16T11:44:02.668Z,65.44
2022-09-16T11:45:02.659Z,60.58
2022-09-16T11:46:02.670Z,59.17
2022-09-16T11:47:02.630Z,56.09
2022-09-16T11:48:02.632Z,61.61
2022-09-16T11:49:02.604Z,61.90
2022-09-16T11:50:02.613Z,63.06
2022-09-16T11:51:02.622Z,61.81
2022-09-16T11:52:02.589Z,58.69
2022-09-16T11:53:05.128Z,58.43
2022-09-16T11:54:02.729Z,59.82
2022-09-16T11:55:02.536Z,55.36
2022-09-16T11:56:02.576Z,58.91
2022-09-16T11:57:02.501Z,59.96
2022-09-16T11:58:02.496Z,60.65
2022-09-16T11:59:02.476Z,62.05
2022-09-16T12:00:02.481Z,63.65
2022-09-16T12:01:02.506Z,66.20
2022-09-16T12:02:02.541Z,62.39
2022-09-16T12:03:02.478Z,63.12
2022-09-16T12:04:02.436Z,61.98
2022-09-16T12:05:02.433Z,63.79
2022-09-16T12:06:02.468Z,64.80
2022-09-16T12:07:02.407Z,62.93
2022-09-16T12:08:02.424Z,63.73
2022-09-16T12:09:03.728Z,62.13
2022-09-16T12:10:02.379Z,63.46
2022-09-16T12:11:02.381Z,63.36
2022-09-16T12:12:02.356Z,64.56
2022-09-16T12:13:02.330Z,66.13
2022-09-16T12:14:05.355Z,67.60
2022-09-16T12:15:05.698Z,67.54
2022-09-16T12:16:02.343Z,68.37
2022-09-16T12:17:02.291Z,68.10
2022-09-16T12:18:02.282Z,70.39
2022-09-16T12:19:02.274Z,72.41
2022-09-16T12:20:02.268Z,72.11
2022-09-16T12:21:02.286Z,72.68
2022-09-16T12:22:02.246Z,69.25
2022-09-16T12:23:02.220Z,66.05
2022-09-16T12:24:02.209Z,61.98
2022-09-16T12:25:02.203Z,59.69
2022-09-16T12:26:02.225Z,57.61
2022-09-16T12:27:02.200Z,57.80
2022-09-16T12:28:02.222Z,55.95
2022-09-16T12:29:02.155Z,57.06
2022-09-16T12:30:02.163Z,52.07
2022-09-16T12:31:02.214Z,50.50
2022-09-16T12:32:02.132Z,51.87
2022-09-16T12:33:02.102Z,51.47
2022-09-16T12:34:02.118Z,52.42
2022-09-16T12:35:02.093Z,50.23
2022-09-16T12:36:02.127Z,55.43
2022-09-16T12:37:02.079Z,52.79
2022-09-16T12:38:02.060Z,51.92
2022-09-16T12:39:02.046Z,49.34
2022-09-16T12:40:02.170Z,48.27
2022-09-16T12:41:02.064Z,48.22
2022-09-16T12:42:02.021Z,48.44
2022-09-16T12:43:01.995Z,51.52
2022-09-16T12:44:17.031Z,52.37
2022-09-16T12:45:02.982Z,50.60
2022-09-16T12:46:02.030Z,49.71
2022-09-16T12:47:01.966Z,50.56
2022-09-16T12:48:01.954Z,54.24
2022-09-16T12:49:01.937Z,55.85
2022-09-16T12:50:01.922Z,52.34
2022-09-16T12:51:01.958Z,54.64
2022-09-16T12:52:01.916Z,56.32
2022-09-16T12:53:01.911Z,58.06